sensor_id;sensor_type;location;lat;lon;timestamp;temperature;humidity
40816;DHT22;26535;48.788;9.214;2023-02-01T00:00:31;4.70;99.90
40816;DHT22;26535;48.788;9.214;2023-02-01T00:02:58;4.70;99.90
40816;DHT22;26535;48.788;9.214;2023-02-01T00:05:27;4.70;99.90
40816;DHT22;26535;48.788;9.214;2023-02-01T00:07:53;4.70;99.90
40816;DHT22;26535;48.788;9.214;2023-02-01T00:10:19;4.70;99.90
40816;DHT22;26535;48.788;9.214;2023-02-01T00:12:51;4.70;99.90
40816;DHT22;26535;48.788;9.214;2023-02-01T00:15:16;4.70;99.90
40816;DHT22;26535;48.788;9.214;2023-02-01T00:17:42;4.60;99.90
40816;DHT22;26535;48.788;9.214;2023-02-01T00:20:14;4.60;99.90
40816;DHT22;26535;48.788;9.214;2023-02-01T00:22:40;4.60;99.90
40816;DHT22;26535;48.788;9.214;2023-02-01T00:25:12;4.70;99.90
40816;DHT22;26535;48.788;9.214;2023-02-01T00:27:54;4.60;99.90
40816;DHT22;26535;48.788;9.214;2023-02-01T00:30:35;4.60;99.90
40816;DHT22;26535;48.788;9.214;2023-02-01T06:01:43;5.20;99.90
40816;DHT22;26535;48.788;9.214;2023-02-01T06:04:08;5.20;99.90
40816;DHT22;26535;48.788;9.214;2023-02-01T06:06:34;5.10;99.90
40816;DHT22;26535;48.788;9.214;2023-02-01T06:09:02;5.00;99.90
40816;DHT22;26535;48.788;9.214;2023-02-01T06:11:28;4.90;99.90
40816;DHT22;26535;48.788;9.214;2023-02-01T06:13:54;4.90;99.90
40816;DHT22;26535;48.788;9.214;2023-02-01T06:16:21;4.90;99.90
40816;DHT22;26535;48.788;9.214;2023-02-01T06:18:47;4.90;99.90
40816;DHT22;26535;48.788;9.214;2023-02-01T06:21:13;4.80;99.90
40816;DHT22;26535;48.788;9.214;2023-02-01T06:23:49;4.90;99.90
40816;DHT22;26535;48.788;9.214;2023-02-01T06:26:16;4.90;99.90
40816;DHT22;26535;48.788;9.214;2023-02-01T06:28:43;4.80;99.90
40816;DHT22;26535;48.788;9.214;2023-02-01T06:31:09;4.80;99.90
40816;DHT22;26535;48.788;9.214;2023-02-01T06:33:48;4.90;99.90
40816;DHT22;26535;48.788;9.214;2023-02-01T06:36:17;4.90;99.90
40816;DHT22;26535;48.788;9.214;2023-02-01T06:39:34;4.90;99.90
40816;DHT22;26535;48.788;9.214;2023-02-01T06:42:21;4.90;99.90
40816;DHT22;26535;48.788;9.214;2023-02-01T06:44:46;4.90;99.90
40816;DHT22;26535;48.788;9.214;2023-02-01T06:47:13;4.90;99.90
40816;DHT22;26535;48.788;9.214;2023-02-01T06:49:38;4.90;99.90
40816;DHT22;26535;48.788;9.214;2023-02-01T06:52:05;5.00;99.90
40816;DHT22;26535;48.788;9.214;2023-02-01T06:54:33;4.90;99.90
40816;DHT22;26535;48.788;9.214;2023-02-01T06:57:02;5.00;99.90
40816;DHT22;26535;48.788;9.214;2023-02-01T06:59:28;5.00;99.90
40816;DHT22;26535;48.788;9.214;2023-02-01T07:01:54;5.00;99.90
40816;DHT22;26535;48.788;9.214;2023-02-01T07:04:20;5.10;99.90
40816;DHT22;26535;48.788;9.214;2023-02-01T07:06:45;5.10;99.90
40816;DHT22;26535;48.788;9.214;2023-02-01T07:09:20;5.10;99.90
40816;DHT22;26535;48.788;9.214;2023-02-01T07:11:52;5.20;99.90
40816;DHT22;26535;48.788;9.214;2023-02-01T07:14:21;5.20;99.90
40816;DHT22;26535;48.788;9.214;2023-02-01T07:16:55;5.20;99.90
40816;DHT22;26535;48.788;9.214;2023-02-01T07:19:27;5.30;99.90
40816;DHT22;26535;48.788;9.214;2023-02-01T07:21:53;5.30;99.90
40816;DHT22;26535;48.788;9.214;2023-02-01T07:24:19;5.30;99.90
40816;DHT22;26535;48.788;9.214;2023-02-01T07:26:53;5.40;99.90
40816;DHT22;26535;48.788;9.214;2023-02-01T07:29:40;5.40;99.90
40816;DHT22;26535;48.788;9.214;2023-02-01T07:32:11;5.40;99.90
40816;DHT22;26535;48.788;9.214;2023-02-01T07:35:00;5.40;99.90
40816;DHT22;26535;48.788;9.214;2023-02-01T07:37:32;5.40;99.90
40816;DHT22;26535;48.788;9.214;2023-02-01T07:39:58;5.50;99.90
40816;DHT22;26535;48.788;9.214;2023-02-01T07:42:25;5.50;99.90
40816;DHT22;26535;48.788;9.214;2023-02-01T07:44:50;5.50;99.90
40816;DHT22;26535;48.788;9.214;2023-02-01T07:47:16;5.50;99.90
40816;DHT22;26535;48.788;9.214;2023-02-01T07:49:51;5.60;99.90
40816;DHT22;26535;48.788;9.214;2023-02-01T07:52:20;5.60;99.90
40816;DHT22;26535;48.788;9.214;2023-02-01T07:54:46;5.70;99.90
40816;DHT22;26535;48.788;9.214;2023-02-01T07:57:11;5.70;99.90
40816;DHT22;26535;48.788;9.214;2023-02-01T07:59:38;5.80;99.90
40816;DHT22;26535;48.788;9.214;2023-02-01T08:02:34;5.80;99.90
40816;DHT22;26535;48.788;9.214;2023-02-01T08:05:25;5.80;99.90
40816;DHT22;26535;48.788;9.214;2023-02-01T08:08:22;5.80;99.90
40816;DHT22;26535;48.788;9.214;2023-02-01T08:11:12;5.90;99.90
40816;DHT22;26535;48.788;9.214;2023-02-01T08:14:08;6.00;99.90
40816;DHT22;26535;48.788;9.214;2023-02-01T08:16:37;6.00;99.90
40816;DHT22;26535;48.788;9.214;2023-02-01T08:19:07;6.00;99.90
40816;DHT22;26535;48.788;9.214;2023-02-01T08:21:42;6.00;99.90
40816;DHT22;26535;48.788;9.214;2023-02-01T08:24:47;6.00;99.90
40816;DHT22;26535;48.788;9.214;2023-02-01T08:31:11;6.10;99.90
40816;DHT22;26535;48.788;9.214;2023-02-01T08:33:54;6.20;99.90
40816;DHT22;26535;48.788;9.214;2023-02-01T08:36:56;6.30;99.90
40816;DHT22;26535;48.788;9.214;2023-02-01T08:39:25;6.40;99.90
40816;DHT22;26535;48.788;9.214;2023-02-01T08:41:51;6.40;99.90
40816;DHT22;26535;48.788;9.214;2023-02-01T08:44:36;6.50;99.90
40816;DHT22;26535;48.788;9.214;2023-02-01T08:47:05;6.60;99.90
40816;DHT22;26535;48.788;9.214;2023-02-01T08:49:30;6.70;99.90
40816;DHT22;26535;48.788;9.214;2023-02-01T08:52:03;6.80;99.90
40816;DHT22;26535;48.788;9.214;2023-02-01T08:54:30;6.80;99.90
40816;DHT22;26535;48.788;9.214;2023-02-01T08:56:55;6.80;99.90
40816;DHT22;26535;48.788;9.214;2023-02-01T08:59:22;6.80;99.90
40816;DHT22;26535;48.788;9.214;2023-02-01T09:01:47;6.80;99.90
40816;DHT22;26535;48.788;9.214;2023-02-01T09:04:24;6.80;99.90
40816;DHT22;26535;48.788;9.214;2023-02-01T09:07:04;6.70;99.90
40816;DHT22;26535;48.788;9.214;2023-02-01T09:09:29;6.80;99.90
40816;DHT22;26535;48.788;9.214;2023-02-01T09:11:55;6.70;99.90
40816;DHT22;26535;48.788;9.214;2023-02-01T09:14:26;6.60;99.90
40816;DHT22;26535;48.788;9.214;2023-02-01T09:16:52;6.60;99.90
40816;DHT22;26535;48.788;9.214;2023-02-01T09:19:24;6.60;99.90
40816;DHT22;26535;48.788;9.214;2023-02-01T09:22:07;6.60;99.90
40816;DHT22;26535;48.788;9.214;2023-02-01T09:24:38;6.60;99.90
40816;DHT22;26535;48.788;9.214;2023-02-01T09:27:04;6.70;99.90
40816;DHT22;26535;48.788;9.214;2023-02-01T09:29:45;6.70;99.90
40816;DHT22;26535;48.788;9.214;2023-02-01T09:32:25;6.80;99.90
40816;DHT22;26535;48.788;9.214;2023-02-01T09:34:59;6.90;99.90
40816;DHT22;26535;48.788;9.214;2023-02-01T09:40:23;7.20;99.90
40816;DHT22;26535;48.788;9.214;2023-02-01T09:43:18;7.30;99.90
40816;DHT22;26535;48.788;9.214;2023-02-01T09:46:21;7.50;99.90
40816;DHT22;26535;48.788;9.214;2023-02-01T09:49:16;7.50;99.90
40816;DHT22;26535;48.788;9.214;2023-02-01T09:51:47;7.50;99.90
40816;DHT22;26535;48.788;9.214;2023-02-01T09:57:32;7.70;99.90
40816;DHT22;26535;48.788;9.214;2023-02-01T10:00:14;7.60;99.90
40816;DHT22;26535;48.788;9.214;2023-02-01T10:02:43;7.70;99.90
40816;DHT22;26535;48.788;9.214;2023-02-01T10:11:18;7.70;99.90
40816;DHT22;26535;48.788;9.214;2023-02-01T10:14:11;7.70;99.90
40816;DHT22;26535;48.788;9.214;2023-02-01T10:22:43;7.60;99.90
40816;DHT22;26535;48.788;9.214;2023-02-01T10:29:16;7.80;99.90
40816;DHT22;26535;48.788;9.214;2023-02-01T10:34:35;8.00;99.90
40816;DHT22;26535;48.788;9.214;2023-02-01T10:37:23;8.10;99.90
40816;DHT22;26535;48.788;9.214;2023-02-01T10:39:54;8.20;99.90
40816;DHT22;26535;48.788;9.214;2023-02-01T10:42:28;8.20;99.30
40816;DHT22;26535;48.788;9.214;2023-02-01T10:45:02;7.90;99.30
40816;DHT22;26535;48.788;9.214;2023-02-01T10:48:10;7.90;99.80
40816;DHT22;26535;48.788;9.214;2023-02-01T10:54:37;8.00;99.00
40816;DHT22;26535;48.788;9.214;2023-02-01T10:57:27;8.10;99.40
40816;DHT22;26535;48.788;9.214;2023-02-01T10:59:55;8.20;98.70
40816;DHT22;26535;48.788;9.214;2023-02-01T11:02:30;8.30;98.50
40816;DHT22;26535;48.788;9.214;2023-02-01T11:08:15;8.00;99.00
40816;DHT22;26535;48.788;9.214;2023-02-01T11:10:42;7.90;98.40
40816;DHT22;26535;48.788;9.214;2023-02-01T11:13:17;7.90;98.60
40816;DHT22;26535;48.788;9.214;2023-02-01T11:15:47;8.00;98.40
40816;DHT22;26535;48.788;9.214;2023-02-01T11:18:25;8.00;98.60
40816;DHT22;26535;48.788;9.214;2023-02-01T11:20:52;8.10;98.00
40816;DHT22;26535;48.788;9.214;2023-02-01T11:23:24;8.20;97.90
40816;DHT22;26535;48.788;9.214;2023-02-01T11:25:59;8.10;98.10
40816;DHT22;26535;48.788;9.214;2023-02-01T11:28:31;8.00;97.80
40816;DHT22;26535;48.788;9.214;2023-02-01T11:31:02;7.90;97.60
40816;DHT22;26535;48.788;9.214;2023-02-01T11:33:32;7.80;98.20
40816;DHT22;26535;48.788;9.214;2023-02-01T11:36:24;7.80;98.20
40816;DHT22;26535;48.788;9.214;2023-02-01T11:41:54;8.00;97.60
40816;DHT22;26535;48.788;9.214;2023-02-01T11:46:56;8.00;97.40
40816;DHT22;26535;48.788;9.214;2023-02-01T11:49:38;8.00;97.20
40816;DHT22;26535;48.788;9.214;2023-02-01T12:06:50;8.80;95.40
40816;DHT22;26535;48.788;9.214;2023-02-01T12:18:12;7.80;95.80
40816;DHT22;26535;48.788;9.214;2023-02-01T12:43:59;7.80;96.70
40816;DHT22;26535;48.788;9.214;2023-02-01T12:46:39;7.70;96.40
40816;DHT22;26535;48.788;9.214;2023-02-01T12:49:09;7.70;96.80
40816;DHT22;26535;48.788;9.214;2023-02-01T12:51:41;7.60;96.80
40816;DHT22;26535;48.788;9.214;2023-02-01T12:54:13;7.50;96.90
40816;DHT22;26535;48.788;9.214;2023-02-01T12:57:04;7.60;97.10
40816;DHT22;26535;48.788;9.214;2023-02-01T13:00:01;7.50;97.10
40816;DHT22;26535;48.788;9.214;2023-02-01T13:02:30;7.50;97.20
40816;DHT22;26535;48.788;9.214;2023-02-01T13:05:04;7.40;97.70
40816;DHT22;26535;48.788;9.214;2023-02-01T13:07:53;7.30;98.70
40816;DHT22;26535;48.788;9.214;2023-02-01T13:10:36;7.20;99.30
40816;DHT22;26535;48.788;9.214;2023-02-01T13:18:16;7.20;99.10
40816;DHT22;26535;48.788;9.214;2023-02-01T13:21:01;7.30;99.00
40816;DHT22;26535;48.788;9.214;2023-02-01T13:23:31;7.30;98.90
40816;DHT22;26535;48.788;9.214;2023-02-01T13:25:59;7.50;98.70
40816;DHT22;26535;48.788;9.214;2023-02-01T13:28:58;7.40;98.20
40816;DHT22;26535;48.788;9.214;2023-02-01T13:39:52;7.40;97.70
40816;DHT22;26535;48.788;9.214;2023-02-01T13:42:27;7.50;97.90
40816;DHT22;26535;48.788;9.214;2023-02-01T13:47:49;7.50;97.70
40816;DHT22;26535;48.788;9.214;2023-02-01T13:50:31;7.50;97.80
40816;DHT22;26535;48.788;9.214;2023-02-01T13:56:16;7.40;99.50
40816;DHT22;26535;48.788;9.214;2023-02-01T13:58:47;7.20;99.90
40816;DHT22;26535;48.788;9.214;2023-02-01T14:03:53;7.00;99.90
40816;DHT22;26535;48.788;9.214;2023-02-01T14:09:18;7.00;99.90
40816;DHT22;26535;48.788;9.214;2023-02-01T14:16:43;7.30;99.70
40816;DHT22;26535;48.788;9.214;2023-02-01T14:21:53;7.30;98.70
40816;DHT22;26535;48.788;9.214;2023-02-01T14:24:34;7.30;98.90
40816;DHT22;26535;48.788;9.214;2023-02-01T14:29:43;7.30;98.60
40816;DHT22;26535;48.788;9.214;2023-02-01T14:32:21;7.30;98.60
40816;DHT22;26535;48.788;9.214;2023-02-01T14:53:20;7.20;98.60
40816;DHT22;26535;48.788;9.214;2023-02-01T14:58:56;7.10;99.00
40816;DHT22;26535;48.788;9.214;2023-02-01T15:01:34;7.10;99.20
40816;DHT22;26535;48.788;9.214;2023-02-01T15:04:13;7.10;99.40
40816;DHT22;26535;48.788;9.214;2023-02-01T15:06:52;7.10;99.60
40816;DHT22;26535;48.788;9.214;2023-02-01T15:09:28;7.10;99.50
40816;DHT22;26535;48.788;9.214;2023-02-01T15:14:27;7.10;98.80
40816;DHT22;26535;48.788;9.214;2023-02-01T15:16:54;7.10;98.90
40816;DHT22;26535;48.788;9.214;2023-02-01T15:19:24;7.10;99.20
40816;DHT22;26535;48.788;9.214;2023-02-01T15:21:53;7.10;99.20
40816;DHT22;26535;48.788;9.214;2023-02-01T15:24:39;7.10;99.10
40816;DHT22;26535;48.788;9.214;2023-02-01T15:27:05;7.10;99.20
40816;DHT22;26535;48.788;9.214;2023-02-01T15:29:34;7.00;99.40
40816;DHT22;26535;48.788;9.214;2023-02-01T15:32:01;7.00;99.40
40816;DHT22;26535;48.788;9.214;2023-02-01T15:34:50;7.00;99.60
40816;DHT22;26535;48.788;9.214;2023-02-01T15:37:23;7.00;99.40
40816;DHT22;26535;48.788;9.214;2023-02-01T15:40:18;7.00;99.50
40816;DHT22;26535;48.788;9.214;2023-02-01T15:42:55;7.00;99.20
40816;DHT22;26535;48.788;9.214;2023-02-01T15:45:25;7.00;99.30
40816;DHT22;26535;48.788;9.214;2023-02-01T15:47:53;7.00;99.20
40816;DHT22;26535;48.788;9.214;2023-02-01T15:50:20;7.00;99.00
40816;DHT22;26535;48.788;9.214;2023-02-01T15:52:49;7.00;98.80
40816;DHT22;26535;48.788;9.214;2023-02-01T15:55:22;7.00;98.80
40816;DHT22;26535;48.788;9.214;2023-02-01T15:57:50;7.00;98.70
40816;DHT22;26535;48.788;9.214;2023-02-01T16:00:31;7.00;98.70
40816;DHT22;26535;48.788;9.214;2023-02-01T16:03:04;7.00;98.70
40816;DHT22;26535;48.788;9.214;2023-02-01T16:05:39;7.00;98.60
40816;DHT22;26535;48.788;9.214;2023-02-01T16:08:21;6.90;98.50
40816;DHT22;26535;48.788;9.214;2023-02-01T16:10:49;6.90;98.50
40816;DHT22;26535;48.788;9.214;2023-02-01T16:13:17;7.00;98.50
40816;DHT22;26535;48.788;9.214;2023-02-01T16:15:43;7.00;98.60
40816;DHT22;26535;48.788;9.214;2023-02-01T16:18:12;7.00;98.50
40816;DHT22;26535;48.788;9.214;2023-02-01T16:20:40;6.90;98.30
40816;DHT22;26535;48.788;9.214;2023-02-01T16:23:07;6.90;97.70
40816;DHT22;26535;48.788;9.214;2023-02-01T16:25:33;7.00;97.70
40816;DHT22;26535;48.788;9.214;2023-02-01T16:28:00;7.00;97.80
40816;DHT22;26535;48.788;9.214;2023-02-01T16:30:26;7.00;97.90
40816;DHT22;26535;48.788;9.214;2023-02-01T16:32:53;7.00;97.90
40816;DHT22;26535;48.788;9.214;2023-02-01T16:35:24;6.90;97.90
40816;DHT22;26535;48.788;9.214;2023-02-01T16:37:50;7.00;97.90
40816;DHT22;26535;48.788;9.214;2023-02-01T16:40:17;7.00;98.00
40816;DHT22;26535;48.788;9.214;2023-02-01T16:42:45;7.00;98.00
40816;DHT22;26535;48.788;9.214;2023-02-01T16:45:11;7.00;98.20
40816;DHT22;26535;48.788;9.214;2023-02-01T16:47:42;6.90;98.20
40816;DHT22;26535;48.788;9.214;2023-02-01T16:50:18;6.90;98.30
40816;DHT22;26535;48.788;9.214;2023-02-01T16:53:20;6.90;98.10
40816;DHT22;26535;48.788;9.214;2023-02-01T16:55:46;6.90;98.00
40816;DHT22;26535;48.788;9.214;2023-02-01T16:58:24;6.90;98.00
40816;DHT22;26535;48.788;9.214;2023-02-01T17:00:51;6.90;97.90
40816;DHT22;26535;48.788;9.214;2023-02-01T17:03:17;6.90;97.80
40816;DHT22;26535;48.788;9.214;2023-02-01T17:05:49;6.90;97.90
40816;DHT22;26535;48.788;9.214;2023-02-01T17:08:29;6.80;97.90
40816;DHT22;26535;48.788;9.214;2023-02-01T17:10:55;6.80;97.80
40816;DHT22;26535;48.788;9.214;2023-02-01T17:13:21;6.80;97.90
40816;DHT22;26535;48.788;9.214;2023-02-01T17:16:01;6.80;98.20
40816;DHT22;26535;48.788;9.214;2023-02-01T17:18:33;6.80;98.00
40816;DHT22;26535;48.788;9.214;2023-02-01T17:21:03;6.80;98.00
40816;DHT22;26535;48.788;9.214;2023-02-01T17:23:30;6.70;98.10
40816;DHT22;26535;48.788;9.214;2023-02-01T17:25:56;6.80;98.10
40816;DHT22;26535;48.788;9.214;2023-02-01T17:28:23;6.80;98.10
40816;DHT22;26535;48.788;9.214;2023-02-01T17:30:49;6.80;98.00
40816;DHT22;26535;48.788;9.214;2023-02-01T17:33:24;6.80;98.10
40816;DHT22;26535;48.788;9.214;2023-02-01T17:35:52;6.80;98.10
40816;DHT22;26535;48.788;9.214;2023-02-01T17:38:18;6.80;98.10
40816;DHT22;26535;48.788;9.214;2023-02-01T17:40:45;6.80;98.30
40816;DHT22;26535;48.788;9.214;2023-02-01T17:43:24;6.80;98.30
40816;DHT22;26535;48.788;9.214;2023-02-01T17:48:40;6.70;98.60
40816;DHT22;26535;48.788;9.214;2023-02-01T17:51:17;6.60;98.70
40816;DHT22;26535;48.788;9.214;2023-02-01T17:53:43;6.60;98.90
40816;DHT22;26535;48.788;9.214;2023-02-01T17:56:18;6.60;99.00
40816;DHT22;26535;48.788;9.214;2023-02-01T17:58:45;6.70;98.90
40816;DHT22;26535;48.788;9.214;2023-02-01T18:01:17;6.70;98.90
40816;DHT22;26535;48.788;9.214;2023-02-01T18:03:43;6.70;98.90
40816;DHT22;26535;48.788;9.214;2023-02-01T18:06:13;6.70;98.90
40816;DHT22;26535;48.788;9.214;2023-02-01T18:08:39;6.70;99.00
40816;DHT22;26535;48.788;9.214;2023-02-01T18:11:10;6.60;99.10
40816;DHT22;26535;48.788;9.214;2023-02-01T18:13:39;6.60;99.20
40816;DHT22;26535;48.788;9.214;2023-02-01T18:16:05;6.60;99.30
40816;DHT22;26535;48.788;9.214;2023-02-01T18:18:31;6.60;99.30
40816;DHT22;26535;48.788;9.214;2023-02-01T18:20:58;6.60;99.40
40816;DHT22;26535;48.788;9.214;2023-02-01T18:23:24;6.60;99.50
40816;DHT22;26535;48.788;9.214;2023-02-01T18:25:51;6.60;99.50
40816;DHT22;26535;48.788;9.214;2023-02-01T18:28:18;6.70;99.60
40816;DHT22;26535;48.788;9.214;2023-02-01T18:30:46;6.60;99.50
40816;DHT22;26535;48.788;9.214;2023-02-01T18:33:16;6.60;99.60
40816;DHT22;26535;48.788;9.214;2023-02-01T18:35:42;6.70;99.50
40816;DHT22;26535;48.788;9.214;2023-02-01T18:38:08;6.70;99.50
40816;DHT22;26535;48.788;9.214;2023-02-01T18:40:51;6.70;99.50
40816;DHT22;26535;48.788;9.214;2023-02-01T18:43:18;6.70;99.40
40816;DHT22;26535;48.788;9.214;2023-02-01T18:45:45;6.80;99.30
40816;DHT22;26535;48.788;9.214;2023-02-01T18:48:13;6.90;99.30
40816;DHT22;26535;48.788;9.214;2023-02-01T18:50:41;6.80;99.40
40816;DHT22;26535;48.788;9.214;2023-02-01T18:53:15;6.80;99.20
40816;DHT22;26535;48.788;9.214;2023-02-01T18:55:41;6.80;99.10
40816;DHT22;26535;48.788;9.214;2023-02-01T18:58:07;6.90;99.00
40816;DHT22;26535;48.788;9.214;2023-02-01T19:00:35;6.80;98.90
40816;DHT22;26535;48.788;9.214;2023-02-01T19:03:01;6.80;98.80
40816;DHT22;26535;48.788;9.214;2023-02-01T19:05:26;6.90;98.80
40816;DHT22;26535;48.788;9.214;2023-02-01T19:07:52;6.80;98.60
40816;DHT22;26535;48.788;9.214;2023-02-01T19:10:20;6.80;98.60
40816;DHT22;26535;48.788;9.214;2023-02-01T19:12:47;6.80;98.50
40816;DHT22;26535;48.788;9.214;2023-02-01T19:15:13;6.90;98.60
40816;DHT22;26535;48.788;9.214;2023-02-01T19:17:45;6.90;98.40
40816;DHT22;26535;48.788;9.214;2023-02-01T19:20:13;6.90;98.40
40816;DHT22;26535;48.788;9.214;2023-02-01T19:22:39;6.90;98.50
40816;DHT22;26535;48.788;9.214;2023-02-01T19:25:22;6.90;98.50
40816;DHT22;26535;48.788;9.214;2023-02-01T19:27:49;6.80;98.60
40816;DHT22;26535;48.788;9.214;2023-02-01T19:30:17;6.80;98.70
40816;DHT22;26535;48.788;9.214;2023-02-01T19:32:43;6.80;98.60
40816;DHT22;26535;48.788;9.214;2023-02-01T19:35:12;6.80;98.70
40816;DHT22;26535;48.788;9.214;2023-02-01T19:37:40;6.80;98.70
40816;DHT22;26535;48.788;9.214;2023-02-01T19:40:11;6.80;98.70
40816;DHT22;26535;48.788;9.214;2023-02-01T19:42:37;6.70;98.80
40816;DHT22;26535;48.788;9.214;2023-02-01T19:45:04;6.70;98.90
40816;DHT22;26535;48.788;9.214;2023-02-01T19:47:30;6.80;98.90
40816;DHT22;26535;48.788;9.214;2023-02-01T19:49:56;6.70;98.90
40816;DHT22;26535;48.788;9.214;2023-02-01T19:52:22;6.80;99.00
40816;DHT22;26535;48.788;9.214;2023-02-01T19:54:48;6.80;99.00
40816;DHT22;26535;48.788;9.214;2023-02-01T19:57:13;6.70;99.10
40816;DHT22;26535;48.788;9.214;2023-02-01T19:59:39;6.80;99.20
40816;DHT22;26535;48.788;9.214;2023-02-01T20:02:05;6.70;99.30
40816;DHT22;26535;48.788;9.214;2023-02-01T20:04:31;6.80;99.10
40816;DHT22;26535;48.788;9.214;2023-02-01T20:06:56;6.80;99.20
40816;DHT22;26535;48.788;9.214;2023-02-01T20:09:24;6.80;99.20
40816;DHT22;26535;48.788;9.214;2023-02-01T20:11:51;6.80;99.20
40816;DHT22;26535;48.788;9.214;2023-02-01T20:14:20;6.70;99.20
40816;DHT22;26535;48.788;9.214;2023-02-01T20:16:46;6.70;99.20
40816;DHT22;26535;48.788;9.214;2023-02-01T20:19:12;6.80;99.40
40816;DHT22;26535;48.788;9.214;2023-02-01T20:21:39;6.80;99.40
40816;DHT22;26535;48.788;9.214;2023-02-01T20:24:08;6.80;99.50
40816;DHT22;26535;48.788;9.214;2023-02-01T20:26:34;6.80;99.80
40816;DHT22;26535;48.788;9.214;2023-02-01T20:29:00;6.80;99.60
40816;DHT22;26535;48.788;9.214;2023-02-01T20:31:27;6.80;99.60
40816;DHT22;26535;48.788;9.214;2023-02-01T20:33:58;6.80;99.60
40816;DHT22;26535;48.788;9.214;2023-02-01T20:36:25;6.90;99.60
40816;DHT22;26535;48.788;9.214;2023-02-01T20:38:55;6.90;99.70
40816;DHT22;26535;48.788;9.214;2023-02-01T20:41:22;6.90;99.80
40816;DHT22;26535;48.788;9.214;2023-02-01T20:43:49;6.90;99.80
40816;DHT22;26535;48.788;9.214;2023-02-01T20:46:15;6.90;99.90
40816;DHT22;26535;48.788;9.214;2023-02-01T20:48:43;6.90;99.80
40816;DHT22;26535;48.788;9.214;2023-02-01T20:51:09;6.90;99.80
40816;DHT22;26535;48.788;9.214;2023-02-01T20:53:36;6.90;99.90
40816;DHT22;26535;48.788;9.214;2023-02-01T20:56:02;6.90;99.90
40816;DHT22;26535;48.788;9.214;2023-02-01T20:58:29;6.90;99.90
40816;DHT22;26535;48.788;9.214;2023-02-01T21:00:55;6.90;99.90
40816;DHT22;26535;48.788;9.214;2023-02-01T21:03:22;6.90;99.90
40816;DHT22;26535;48.788;9.214;2023-02-01T21:05:54;6.90;99.90
40816;DHT22;26535;48.788;9.214;2023-02-01T21:08:20;6.90;99.90
40816;DHT22;26535;48.788;9.214;2023-02-01T21:13:23;6.90;99.90
40816;DHT22;26535;48.788;9.214;2023-02-01T21:15:48;6.90;99.90
40816;DHT22;26535;48.788;9.214;2023-02-01T21:18:15;7.00;99.90
40816;DHT22;26535;48.788;9.214;2023-02-01T21:20:41;7.00;99.90
40816;DHT22;26535;48.788;9.214;2023-02-01T21:23:07;7.00;99.90
40816;DHT22;26535;48.788;9.214;2023-02-01T21:25:32;6.90;99.90
40816;DHT22;26535;48.788;9.214;2023-02-01T21:27:58;7.00;99.90
40816;DHT22;26535;48.788;9.214;2023-02-01T21:30:24;7.00;99.90
40816;DHT22;26535;48.788;9.214;2023-02-01T21:32:50;7.00;99.90
40816;DHT22;26535;48.788;9.214;2023-02-01T21:35:16;7.00;99.80
40816;DHT22;26535;48.788;9.214;2023-02-01T21:37:42;7.00;99.70
40816;DHT22;26535;48.788;9.214;2023-02-01T21:40:09;7.00;99.60
40816;DHT22;26535;48.788;9.214;2023-02-01T21:42:35;7.00;99.60
40816;DHT22;26535;48.788;9.214;2023-02-01T21:45:02;7.10;99.50
40816;DHT22;26535;48.788;9.214;2023-02-01T21:47:28;7.10;99.40
40816;DHT22;26535;48.788;9.214;2023-02-01T21:49:54;7.10;99.40
40816;DHT22;26535;48.788;9.214;2023-02-01T21:52:20;7.10;99.40
40816;DHT22;26535;48.788;9.214;2023-02-01T21:54:46;7.10;99.40
40816;DHT22;26535;48.788;9.214;2023-02-01T21:57:12;7.10;99.50
40816;DHT22;26535;48.788;9.214;2023-02-01T21:59:39;7.20;99.40
40816;DHT22;26535;48.788;9.214;2023-02-01T22:02:10;7.10;99.40
40816;DHT22;26535;48.788;9.214;2023-02-01T22:04:36;7.10;99.60
40816;DHT22;26535;48.788;9.214;2023-02-01T22:07:02;7.10;99.40
40816;DHT22;26535;48.788;9.214;2023-02-01T22:09:27;7.10;99.40
40816;DHT22;26535;48.788;9.214;2023-02-01T22:11:54;7.20;99.40
40816;DHT22;26535;48.788;9.214;2023-02-01T22:14:21;7.10;99.20
40816;DHT22;26535;48.788;9.214;2023-02-01T22:16:47;7.20;99.30
40816;DHT22;26535;48.788;9.214;2023-02-01T22:19:13;7.20;99.20
40816;DHT22;26535;48.788;9.214;2023-02-01T22:21:40;7.10;99.30
40816;DHT22;26535;48.788;9.214;2023-02-01T22:24:09;7.20;99.30
40816;DHT22;26535;48.788;9.214;2023-02-01T22:26:35;7.20;99.20
40816;DHT22;26535;48.788;9.214;2023-02-01T22:29:01;7.20;99.50
40816;DHT22;26535;48.788;9.214;2023-02-01T22:31:27;7.20;99.80
40816;DHT22;26535;48.788;9.214;2023-02-01T22:33:53;7.10;99.90
40816;DHT22;26535;48.788;9.214;2023-02-01T22:36:21;7.10;99.90
40816;DHT22;26535;48.788;9.214;2023-02-01T22:38:49;7.10;99.90
40816;DHT22;26535;48.788;9.214;2023-02-01T22:41:15;7.00;99.90
40816;DHT22;26535;48.788;9.214;2023-02-01T22:43:42;7.00;99.90
40816;DHT22;26535;48.788;9.214;2023-02-01T22:46:11;6.90;99.90
40816;DHT22;26535;48.788;9.214;2023-02-01T22:48:38;7.00;99.90
40816;DHT22;26535;48.788;9.214;2023-02-01T22:51:05;6.90;99.90
40816;DHT22;26535;48.788;9.214;2023-02-01T22:53:31;6.90;99.90
40816;DHT22;26535;48.788;9.214;2023-02-01T22:56:05;6.80;99.90
40816;DHT22;26535;48.788;9.214;2023-02-01T22:58:32;6.80;99.90
40816;DHT22;26535;48.788;9.214;2023-02-01T23:01:08;6.70;99.90
40816;DHT22;26535;48.788;9.214;2023-02-01T23:03:35;6.70;99.90
40816;DHT22;26535;48.788;9.214;2023-02-01T23:06:01;6.70;99.90
40816;DHT22;26535;48.788;9.214;2023-02-01T23:08:27;6.70;99.90
40816;DHT22;26535;48.788;9.214;2023-02-01T23:10:58;6.70;99.90
40816;DHT22;26535;48.788;9.214;2023-02-01T23:13:24;6.70;99.90
40816;DHT22;26535;48.788;9.214;2023-02-01T23:15:50;6.70;99.90
40816;DHT22;26535;48.788;9.214;2023-02-01T23:18:15;6.60;99.90
40816;DHT22;26535;48.788;9.214;2023-02-01T23:20:41;6.60;99.90
40816;DHT22;26535;48.788;9.214;2023-02-01T23:23:07;6.60;99.90
40816;DHT22;26535;48.788;9.214;2023-02-01T23:25:32;6.60;99.90
40816;DHT22;26535;48.788;9.214;2023-02-01T23:27:58;6.50;99.90
40816;DHT22;26535;48.788;9.214;2023-02-01T23:30:24;6.50;99.90
40816;DHT22;26535;48.788;9.214;2023-02-01T23:32:50;6.50;99.90
40816;DHT22;26535;48.788;9.214;2023-02-01T23:35:16;6.40;99.90
40816;DHT22;26535;48.788;9.214;2023-02-01T23:37:42;6.40;99.90
40816;DHT22;26535;48.788;9.214;2023-02-01T23:40:08;6.40;99.90
40816;DHT22;26535;48.788;9.214;2023-02-01T23:42:34;6.30;99.90
40816;DHT22;26535;48.788;9.214;2023-02-01T23:45:00;6.30;99.90
40816;DHT22;26535;48.788;9.214;2023-02-01T23:47:26;6.20;99.90
40816;DHT22;26535;48.788;9.214;2023-02-01T23:49:52;6.20;99.90
40816;DHT22;26535;48.788;9.214;2023-02-01T23:52:17;6.10;99.90
40816;DHT22;26535;48.788;9.214;2023-02-01T23:54:43;6.10;99.90
40816;DHT22;26535;48.788;9.214;2023-02-01T23:57:09;6.10;99.90
40816;DHT22;26535;48.788;9.214;2023-02-01T23:59:35;6.10;99.90
